Terminal Aerodrome Forecast
Issued by NWS

Home | Current Version | Previous Version | Text Only | Print | Product List | Glossary On
Versions: 1 2 3 4 5 6 7 8 9 10 11 12 13 14 15 16 17 18 19 20 21 22 23 24 25 26 27 28 29 30 31 32 33 34 35 36 37 38 39 40 41 42 43 44 45 46 47 48 49 50
000
FTUS45 KBOU 040152 AAA
TAFBJC
TAF AMD
KBJC 040152Z 0402/0424 03010KT P6SM VCSH SCT060 BKN100
      TEMPO 0403/0406 -SHRA BKN050 OVC080
     FM040600 35007KT P6SM -SHRA BKN035 OVC050
     FM040800 03008KT 5SM BR VCSH SCT022 OVC030
      TEMPO 0409/0411 3SM -RA BR BKN020
     FM041100 02005KT 2SM -DZ BR BKN012 OVC020
     FM041700 06006KT 5SM BR VCSH BKN016 OVC025
     FM042000 09008KT P6SM VCSH SCT035 BKN050
      TEMPO 0421/0424 3SM -TSRA BKN030CB=

USA.gov is the U.S. government's official web portal to all federal, state and local government web resources and services.